Terminal Aerodrome Forecast
Issued by NWS

Home | Current Version | Previous Version | Graphics & Text | Print | Product List | Glossary On
Versions: 1 2 3 4 5 6 7 8 9 10 11 12 13 14 15
000
FTUS43 KFGF 241700
TAFBJI
TAF
KBJI 241720Z 2418/2518 13014KT P6SM VCSH SCT015 OVC050
     FM250000 09008KT P6SM OVC025
     FM250900 09007KT P6SM OVC015=

USA.gov is the U.S. government's official web portal to all federal, state and local government web resources and services.